createdAt,value
2022-11-18T00:16:10.604Z,99157.28
2022-11-18T00:19:27.972Z,99160.94
2022-11-18T00:27:08.947Z,99179.53
2022-11-18T00:30:17.751Z,99161.34
2022-11-18T00:33:25.960Z,99163.13
2022-11-18T00:36:34.368Z,99144.34
2022-11-18T00:39:42.950Z,99147.69
2022-11-18T00:42:51.400Z,99140.75
2022-11-18T00:45:59.973Z,99157.19
2022-11-18T00:49:09.765Z,99122.28
2022-11-18T01:14:59.976Z,99140.84
2022-11-18T01:18:15.025Z,99125.28
2022-11-18T01:25:29.076Z,99084.75
2022-11-18T01:28:44.976Z,99127.88
2022-11-18T01:32:24.484Z,99110.47
2022-11-18T01:59:05.967Z,99002.34
2022-11-18T02:02:37.301Z,99133.22
2022-11-18T02:05:55.111Z,99134.63
2022-11-18T02:09:11.101Z,99132.69
2022-11-18T02:20:20.215Z,99117.50
2022-11-18T02:23:58.079Z,99121.09
2022-11-18T02:28:23.148Z,99098.19
2022-11-18T02:36:19.780Z,99118.53
2022-11-18T02:47:08.203Z,99095.38
2022-11-18T02:50:28.952Z,99082.88
2022-11-18T02:54:17.464Z,99079.16
2022-11-18T02:57:33.600Z,99075.59
2022-11-18T03:04:48.044Z,99086.53
2022-11-18T03:08:10.836Z,99060.88
2022-11-18T03:16:11.999Z,99049.84
2022-11-18T03:19:44.036Z,98938.62
2022-11-18T03:23:17.679Z,99063.66
2022-11-18T03:26:40.024Z,99069.78
2022-11-18T03:29:57.543Z,99066.09
2022-11-18T03:37:40.983Z,99070.94
2022-11-18T03:56:54.114Z,99088.56
2022-11-18T04:00:07.652Z,99083.97
2022-11-18T04:07:46.112Z,99101.16
2022-11-18T04:15:37.397Z,99070.19
2022-11-18T04:18:53.979Z,99040.69
2022-11-18T04:37:03.080Z,99017.31
2022-11-18T04:40:05.676Z,99023.38
2022-11-18T04:43:22.053Z,99007.72
2022-11-18T04:46:23.849Z,99032.16
2022-11-18T04:49:41.031Z,98917.44
2022-11-18T04:52:42.736Z,99036.50
2022-11-18T04:55:57.002Z,99041.63
2022-11-18T04:59:00.400Z,99055.66
2022-11-18T05:06:18.440Z,99086.87
2022-11-18T05:09:34.057Z,99060.47
2022-11-18T05:16:47.280Z,99051.47
2022-11-18T05:20:24.761Z,99040.16
2022-11-18T05:23:46.055Z,99035.09
2022-11-18T05:27:17.785Z,99022.16
2022-11-18T05:30:26.063Z,99034.59
2022-11-18T05:33:49.214Z,99042.22
2022-11-18T05:37:11.018Z,99027.34
2022-11-18T05:40:12.964Z,99032.50
2022-11-18T05:44:12.289Z,99020.56
2022-11-18T05:58:10.060Z,98995.69
2022-11-18T07:15:44.092Z,99049.94
2022-11-18T07:19:35.980Z,99048.81
2022-11-18T07:50:01.776Z,99005.56
2022-11-18T08:36:42.071Z,98996.41
2022-11-18T08:40:08.019Z,98987.53
2022-11-18T08:43:41.466Z,98840.78
2022-11-18T08:59:31.789Z,98959.16
2022-11-18T09:02:59.329Z,98945.59
2022-11-18T09:07:12.835Z,98952.84
2022-11-18T09:39:03.108Z,98958.22
2022-11-18T09:58:22.878Z,98781.06
2022-11-18T10:17:41.022Z,98888.47
2022-11-18T10:46:01.272Z,98867.28
2022-11-18T10:54:26.214Z,98800.31
2022-11-18T11:49:32.302Z,98866.63
2022-11-18T12:24:38.527Z,98731.19
2022-11-18T12:28:06.115Z,98677.34
2022-11-18T12:32:33.873Z,98722.97
2022-11-18T12:36:15.250Z,98842.69
2022-11-18T12:39:53.539Z,98820.63
2022-11-18T12:43:33.122Z,98818.53
2022-11-18T12:46:53.781Z,98823.72
2022-11-18T12:50:15.511Z,98803.56
2022-11-18T12:53:44.460Z,98827.09
2022-11-18T12:56:53.834Z,98821.03
2022-11-18T13:00:03.107Z,98757.22
2022-11-18T13:07:17.159Z,98823.09
2022-11-18T13:15:00.977Z,98835.47
2022-11-18T13:19:05.302Z,98846.72
2022-11-18T13:23:00.561Z,98687.91
2022-11-18T13:26:35.165Z,98854.03
2022-11-18T13:29:54.415Z,98859.13
2022-11-18T13:33:18.100Z,98871.44
2022-11-18T13:36:26.790Z,98880.25
2022-11-18T13:39:41.058Z,98870.09
2022-11-18T13:42:50.048Z,98877.94
2022-11-18T13:46:10.461Z,98875.97
2022-11-18T13:49:20.555Z,98866.50
2022-11-18T13:52:48.171Z,98805.88
2022-11-18T13:56:08.959Z,98881.16
2022-11-18T13:59:41.123Z,98855.38
2022-11-18T14:02:42.934Z,98875.13
2022-11-18T14:13:54.147Z,98874.25
2022-11-18T14:17:21.149Z,98870.97
2022-11-18T14:20:32.021Z,98875.38
2022-11-18T14:36:18.153Z,98875.44
2022-11-18T14:39:29.486Z,98874.88
2022-11-18T14:47:13.134Z,98880.59
2022-11-18T14:50:49.671Z,98865.00
2022-11-18T15:01:47.653Z,98873.03
2022-11-18T15:05:23.173Z,98869.31
2022-11-18T15:08:38.166Z,98862.31
2022-11-18T15:11:41.709Z,98866.78
2022-11-18T15:15:25.101Z,98853.66
2022-11-18T15:18:26.800Z,98863.28
2022-11-18T15:25:12.102Z,98842.16
2022-11-18T15:28:20.805Z,98877.72
2022-11-18T15:31:30.504Z,98869.66
2022-11-18T15:34:48.477Z,98875.13
2022-11-18T15:38:03.314Z,98883.56
2022-11-18T15:41:26.043Z,98880.94
2022-11-18T15:44:41.130Z,98869.66
2022-11-18T15:55:46.109Z,98877.41
2022-11-18T15:59:04.125Z,98885.94
2022-11-18T16:18:31.146Z,98906.88
2022-11-18T16:22:18.146Z,98907.56
2022-11-18T16:25:33.194Z,98902.31
2022-11-18T16:28:41.146Z,98902.31
2022-11-18T16:39:49.138Z,98907.62
2022-11-18T16:43:59.657Z,98811.97
2022-11-18T16:55:18.255Z,98911.66
2022-11-18T16:58:26.705Z,98915.09
2022-11-18T17:05:18.132Z,98919.25
2022-11-18T17:08:26.729Z,98918.19
2022-11-18T17:15:21.634Z,98913.63
2022-11-18T17:18:30.204Z,98929.03
2022-11-18T17:22:14.765Z,98935.13
2022-11-18T17:25:29.582Z,98942.19
2022-11-18T17:28:45.160Z,98908.47
2022-11-18T17:31:47.842Z,98948.19
2022-11-18T17:35:09.102Z,98954.06
2022-11-18T17:38:17.773Z,98871.19
2022-11-18T17:41:37.405Z,98957.06
2022-11-18T17:44:41.159Z,98945.69
2022-11-18T17:47:56.143Z,98956.63
2022-11-18T17:51:05.838Z,98961.19
2022-11-18T17:54:40.134Z,98961.88
2022-11-18T17:57:41.854Z,98966.09
2022-11-18T18:04:31.330Z,98965.72
2022-11-18T18:08:06.145Z,98968.38
2022-11-18T18:11:35.687Z,98973.78
2022-11-18T18:15:16.155Z,98964.59
2022-11-18T18:18:24.742Z,98977.38
2022-11-18T18:21:59.078Z,98986.91
2022-11-18T18:25:07.256Z,98974.03
2022-11-18T18:28:15.561Z,98991.47
2022-11-18T18:35:10.011Z,98996.66
2022-11-18T18:38:18.127Z,99008.97
2022-11-18T18:49:12.273Z,99005.19
2022-11-18T18:52:20.669Z,99004.69
2022-11-18T18:55:36.509Z,99011.50
2022-11-18T18:58:46.954Z,99009.00
2022-11-18T19:02:19.180Z,99014.84
2022-11-18T19:05:33.364Z,99000.66
2022-11-18T19:08:56.394Z,99033.44
2022-11-18T19:12:09.136Z,99004.34
2022-11-18T19:15:45.221Z,99023.28
2022-11-18T19:18:46.878Z,99051.81
2022-11-18T19:22:26.204Z,99046.56
2022-11-18T19:25:35.349Z,99031.97
2022-11-18T19:28:43.174Z,99061.41
2022-11-18T19:32:16.915Z,99066.75
2022-11-18T19:35:31.166Z,99068.34
2022-11-18T19:38:32.958Z,99079.25
2022-11-18T19:49:32.334Z,99085.75
2022-11-18T19:52:47.253Z,99083.31
2022-11-18T20:00:03.237Z,99101.78
2022-11-18T20:03:45.240Z,99116.06
2022-11-18T20:06:46.861Z,99122.22
2022-11-18T20:10:01.377Z,99136.44
2022-11-18T20:13:12.184Z,99120.97
2022-11-18T20:16:23.370Z,99142.69
2022-11-18T20:19:31.214Z,99148.81
2022-11-18T20:22:42.016Z,99136.09
2022-11-18T20:25:51.162Z,99139.97
2022-11-18T20:29:07.202Z,99068.28
2022-11-18T20:32:24.190Z,99178.06
2022-11-18T20:36:10.386Z,99176.41
2022-11-18T20:39:23.309Z,99185.31
2022-11-18T20:42:57.489Z,99064.88
2022-11-18T20:46:06.242Z,99182.81
2022-11-18T20:49:14.779Z,99135.13
2022-11-18T20:52:27.493Z,99179.22
2022-11-18T20:59:56.299Z,99212.47
2022-11-18T21:03:22.248Z,99227.53
2022-11-18T21:06:32.177Z,99238.06
2022-11-18T21:09:40.222Z,99226.38
2022-11-18T21:12:48.829Z,99256.88
2022-11-18T21:16:03.275Z,99275.81
2022-11-18T21:19:12.222Z,99274.06
2022-11-18T21:22:28.975Z,99281.19
2022-11-18T21:25:30.775Z,99277.22
2022-11-18T21:28:48.147Z,99298.97
2022-11-18T21:36:21.530Z,99294.34
2022-11-18T21:39:36.458Z,99217.09
2022-11-18T21:47:10.285Z,99329.97
2022-11-18T21:50:23.510Z,99333.72
2022-11-18T21:58:03.988Z,99348.84
2022-11-18T22:05:37.292Z,99358.69
2022-11-18T22:08:47.753Z,99362.13
2022-11-18T22:16:20.489Z,99357.62
2022-11-18T22:19:28.818Z,99348.41
2022-11-18T22:23:08.277Z,99364.22
2022-11-18T22:26:24.018Z,99360.81
2022-11-18T22:29:59.243Z,99359.22
2022-11-18T22:49:05.736Z,99415.25
2022-11-18T23:08:49.109Z,99434.91
2022-11-18T23:12:52.143Z,99448.88
2022-11-18T23:16:36.134Z,99438.56
2022-11-18T23:19:51.282Z,99437.44
2022-11-18T23:22:59.734Z,99411.12
2022-11-18T23:26:14.102Z,99429.34
2022-11-18T23:29:25.696Z,99431.94
2022-11-18T23:53:26.273Z,99477.41
2022-11-18T23:56:48.144Z,99484.50
2022-11-18T23:59:56.117Z,99485.34
